createdAt,value
2018-07-01T00:00:22.753Z,1.07
2018-07-01T00:02:52.510Z,1.25
2018-07-01T00:05:24.621Z,1.10
2018-07-01T00:07:53.985Z,1.12
2018-07-01T00:10:22.710Z,1.10
2018-07-01T09:03:35.119Z,0.70
2018-07-01T09:06:03.703Z,0.70
2018-07-01T09:08:32.397Z,0.40
2018-07-01T09:11:00.993Z,0.60
2018-07-01T09:13:29.513Z,0.50
2018-07-01T09:15:58.054Z,0.62
2018-07-01T09:18:26.739Z,0.78
2018-07-01T09:20:55.265Z,0.80
2018-07-01T09:23:23.867Z,0.62
2018-07-01T09:25:52.368Z,0.62
2018-07-01T09:28:21.676Z,0.70
2018-07-01T09:30:50.304Z,0.50
2018-07-01T09:33:20.194Z,0.72
2018-07-01T09:35:49.590Z,0.65
2018-07-01T09:38:18.262Z,0.80
2018-07-01T09:40:46.830Z,0.62
2018-07-01T09:43:15.420Z,0.40
2018-07-01T09:45:44.205Z,0.50
2018-07-01T09:48:13.510Z,0.50
2018-07-01T09:50:42.177Z,0.60
2018-07-01T09:53:10.809Z,0.70
2018-07-01T09:55:39.385Z,0.60
2018-07-01T09:58:08.676Z,0.65
2018-07-01T10:00:37.250Z,0.70
2018-07-01T10:03:05.814Z,0.50
2018-07-01T10:05:35.165Z,0.85
2018-07-01T10:08:03.799Z,0.70
2018-07-01T10:10:32.361Z,0.70
2018-07-01T10:13:00.877Z,0.80
2018-07-01T10:15:29.513Z,0.80
2018-07-01T10:17:58.042Z,0.60
2018-07-01T10:20:26.643Z,0.68
2018-07-01T10:22:56.098Z,0.47
2018-07-01T10:25:25.635Z,0.62
2018-07-01T10:27:54.265Z,0.50
2018-07-01T10:30:22.834Z,0.60
2018-07-01T10:32:51.363Z,0.60
2018-07-01T10:35:19.906Z,0.70
2018-07-01T10:37:48.503Z,0.50
2018-07-01T10:40:17.105Z,0.65
2018-07-01T10:42:45.711Z,0.62
2018-07-01T10:45:14.206Z,0.60
2018-07-01T10:47:42.757Z,0.80
2018-07-01T10:50:11.294Z,0.53
2018-07-01T10:52:39.811Z,0.70
2018-07-01T10:55:08.376Z,0.60
2018-07-01T10:57:37.091Z,1.05
2018-07-01T11:00:05.599Z,1.20
2018-07-01T11:02:34.125Z,0.90
2018-07-01T11:05:02.660Z,0.70
2018-07-01T11:07:31.294Z,2.40
2018-07-01T11:09:59.866Z,1.15
2018-07-01T11:12:28.376Z,1.00
2018-07-01T11:14:57.083Z,0.70
2018-07-01T11:17:25.695Z,0.50
2018-07-01T11:19:54.284Z,0.70
2018-07-01T11:22:22.850Z,0.72
2018-07-01T11:24:51.392Z,0.75
2018-07-01T11:27:20.137Z,0.70
2018-07-01T11:29:48.683Z,0.80
2018-07-01T11:32:17.185Z,0.60
2018-07-01T11:34:45.750Z,0.60
2018-07-01T11:37:14.341Z,0.70
2018-07-01T11:39:42.878Z,0.45
2018-07-01T11:42:11.433Z,0.50
2018-07-01T11:44:40.020Z,0.80
2018-07-01T11:47:08.559Z,0.70
2018-07-01T11:49:37.065Z,0.60
2018-07-01T11:52:06.023Z,0.60
2018-07-01T11:54:34.559Z,0.57
2018-07-01T11:57:03.276Z,0.70
2018-07-01T11:59:31.747Z,0.50
2018-07-01T12:02:00.389Z,0.62
2018-07-01T12:04:28.915Z,0.70
2018-07-01T12:06:57.423Z,0.80
2018-07-01T12:09:26.040Z,0.53
2018-07-01T12:11:54.652Z,0.60
2018-07-01T12:14:23.174Z,0.50
2018-07-01T12:16:51.692Z,0.60
2018-07-01T12:19:21.347Z,0.60
2018-07-01T12:21:49.922Z,0.53
2018-07-01T12:24:18.505Z,0.55
2018-07-01T12:26:47.059Z,0.68
2018-07-01T12:29:15.565Z,0.50
2018-07-01T12:31:44.355Z,0.50
2018-07-01T12:34:12.898Z,0.57
2018-07-01T12:36:41.486Z,0.60
2018-07-01T12:39:11.829Z,0.60
2018-07-01T12:41:40.376Z,0.60
2018-07-01T12:44:08.927Z,0.70
2018-07-01T12:46:37.479Z,0.50
2018-07-01T12:49:06.012Z,0.60
2018-07-01T12:51:34.501Z,0.40
2018-07-01T12:54:03.083Z,0.50
2018-07-01T12:56:31.651Z,0.60
2018-07-01T12:59:00.229Z,0.57
2018-07-01T13:01:28.750Z,0.72
2018-07-01T13:03:57.295Z,1.15
2018-07-01T13:06:26.050Z,0.80
2018-07-01T13:08:54.658Z,0.80
2018-07-01T13:11:23.343Z,0.70
2018-07-01T13:13:51.885Z,0.50
2018-07-01T13:16:20.508Z,0.80
2018-07-01T13:18:49.353Z,0.78
2018-07-01T13:21:17.879Z,0.70
2018-07-01T13:23:46.380Z,1.07
2018-07-01T13:26:14.904Z,0.90
2018-07-01T13:28:43.546Z,0.70
2018-07-01T13:31:12.074Z,0.60
2018-07-01T13:33:40.565Z,0.68
2018-07-01T13:36:09.090Z,0.60
2018-07-01T13:38:37.725Z,0.70
2018-07-01T13:41:06.794Z,0.90
2018-07-01T13:43:35.309Z,0.95
2018-07-01T13:46:03.805Z,0.90
2018-07-01T13:48:32.934Z,0.80
2018-07-01T13:51:02.769Z,1.22
2018-07-01T13:53:31.328Z,1.50
2018-07-01T13:55:59.883Z,2.27
2018-07-01T13:58:29.310Z,3.62
2018-07-01T14:00:57.908Z,5.42
2018-07-01T14:03:26.436Z,7.47
2018-07-01T14:05:54.975Z,12.95
2018-07-01T14:08:23.635Z,19.40
2018-07-01T14:10:52.198Z,29.05
2018-07-01T14:13:20.737Z,46.42
2018-07-01T14:15:49.236Z,78.40
2018-07-01T14:18:17.948Z,112.45
2018-07-01T14:20:46.580Z,133.55
2018-07-01T14:23:15.209Z,152.72
2018-07-01T14:25:43.794Z,177.20
2018-07-01T14:28:12.415Z,196.50
2018-07-01T14:30:40.990Z,203.70
2018-07-01T14:33:10.232Z,209.95
2018-07-01T14:35:38.757Z,212.88
2018-07-01T14:38:07.358Z,222.12
2018-07-01T14:40:36.683Z,225.57
2018-07-01T14:43:05.263Z,231.40
2018-07-01T14:45:33.842Z,222.35
2018-07-01T14:48:02.484Z,214.35
2018-07-01T14:50:31.046Z,212.78
2018-07-01T14:53:00.363Z,209.57
2018-07-01T14:55:28.951Z,219.55
2018-07-01T14:57:57.532Z,214.40
2018-07-01T15:00:26.093Z,219.82
2018-07-01T15:02:54.870Z,212.93
2018-07-01T15:05:24.052Z,218.33
2018-07-01T15:07:52.684Z,204.13
2018-07-01T15:10:21.199Z,188.35
2018-07-01T15:12:49.710Z,180.32
2018-07-01T15:15:19.049Z,175.95
2018-07-01T15:17:47.628Z,169.15
2018-07-01T15:20:16.716Z,161.10
2018-07-01T15:22:45.238Z,157.35
2018-07-01T15:25:13.789Z,159.43
2018-07-01T15:27:42.378Z,148.05
2018-07-01T15:30:11.577Z,143.37
2018-07-01T15:32:40.135Z,138.50
2018-07-01T15:35:08.635Z,133.52
2018-07-01T15:37:37.251Z,126.18
2018-07-01T15:40:05.831Z,125.78
2018-07-01T15:42:35.099Z,131.03
2018-07-01T15:45:03.728Z,129.42
2018-07-01T15:47:32.554Z,125.75
2018-07-01T15:50:01.097Z,125.75
2018-07-01T15:52:29.720Z,123.22
2018-07-01T15:54:58.549Z,120.77
2018-07-01T15:57:27.226Z,110.08
2018-07-01T15:59:56.438Z,99.40
2018-07-01T16:02:25.074Z,93.72
2018-07-01T16:04:53.699Z,93.33
2018-07-01T16:07:22.357Z,87.15
2018-07-01T16:09:50.930Z,81.42
2018-07-01T16:12:19.537Z,76.97
2018-07-01T16:14:49.907Z,73.75
2018-07-01T16:17:18.526Z,72.50
2018-07-01T16:19:48.195Z,64.72
2018-07-01T16:22:17.819Z,63.58
2018-07-01T16:27:02.003Z,60.35
2018-07-01T16:29:31.132Z,55.52
2018-07-01T16:32:00.562Z,52.40
2018-07-01T16:34:29.716Z,52.70
2018-07-01T16:36:59.613Z,48.60
2018-07-01T16:39:28.209Z,43.80
2018-07-01T16:41:57.636Z,40.30
2018-07-01T16:44:26.895Z,37.17
2018-07-01T16:46:55.536Z,34.10
2018-07-01T16:49:24.330Z,31.35
2018-07-01T16:51:53.564Z,31.95
2018-07-01T16:54:23.225Z,28.98
2018-07-01T16:56:51.936Z,28.75
2018-07-01T16:59:25.926Z,27.10
2018-07-01T17:01:56.474Z,26.75
2018-07-01T17:04:25.003Z,22.90
2018-07-01T17:06:56.251Z,21.05
2018-07-01T17:09:48.233Z,20.02
2018-07-01T17:12:16.827Z,19.05
2018-07-01T17:14:46.064Z,17.55
2018-07-01T17:17:14.252Z,14.90
2018-07-01T17:19:43.397Z,12.82
2018-07-01T17:22:12.084Z,12.90
2018-07-01T17:24:40.618Z,10.72
2018-07-01T17:27:11.208Z,10.53
2018-07-01T17:29:39.757Z,9.43
2018-07-01T17:32:13.755Z,8.00
2018-07-01T17:34:43.290Z,3.50
2018-07-01T17:37:11.882Z,1.92
2018-07-01T17:39:40.452Z,1.35
2018-07-01T17:42:08.952Z,1.02
2018-07-01T17:44:37.531Z,0.80
2018-07-01T17:47:06.230Z,0.85
2018-07-01T17:49:34.770Z,1.25
2018-07-01T17:52:03.310Z,0.80
2018-07-01T17:54:31.904Z,0.60
2018-07-01T17:57:00.582Z,0.60
2018-07-01T17:59:29.124Z,0.80
2018-07-01T18:01:57.675Z,0.70
2018-07-01T18:04:26.307Z,0.80
2018-07-01T18:06:54.857Z,0.70
2018-07-01T18:09:23.391Z,1.02
2018-07-01T18:11:52.547Z,0.65
2018-07-01T18:14:21.078Z,0.60
2018-07-01T18:16:49.611Z,0.60
2018-07-01T18:19:18.184Z,0.60
2018-07-01T18:22:04.615Z,0.72
2018-07-01T18:24:35.147Z,0.70
2018-07-01T18:26:43.900Z,0.82
2018-07-01T18:29:17.870Z,0.80
2018-07-01T18:31:41.380Z,0.60
2018-07-01T18:34:09.888Z,0.50
2018-07-01T18:36:38.421Z,0.88
2018-07-01T18:39:08.472Z,0.70
2018-07-01T18:41:37.239Z,0.90
2018-07-01T18:44:06.135Z,0.60
2018-07-01T18:46:35.057Z,0.80
2018-07-01T18:49:03.604Z,0.65
2018-07-01T18:51:32.107Z,1.17
2018-07-01T18:54:01.185Z,0.90
2018-07-01T18:56:29.787Z,0.80
2018-07-01T18:58:58.352Z,1.10
2018-07-01T19:01:27.668Z,0.90
2018-07-01T19:03:56.161Z,1.10
2018-07-01T19:06:25.191Z,1.27
2018-07-01T19:08:54.817Z,1.70
2018-07-01T19:11:23.956Z,1.40
2018-07-01T19:13:52.952Z,1.42
2018-07-01T19:16:21.533Z,1.80
2018-07-01T19:18:50.046Z,1.50
2018-07-01T19:21:18.590Z,1.45
2018-07-01T19:23:47.175Z,1.52
2018-07-01T19:26:15.726Z,1.42
2018-07-01T19:28:44.278Z,1.50
2018-07-01T19:31:12.815Z,1.80
2018-07-01T19:33:41.366Z,1.70
2018-07-01T19:36:09.958Z,1.67
2018-07-01T19:38:38.558Z,1.50
2018-07-01T19:41:07.050Z,1.40
2018-07-01T19:43:36.241Z,1.67
2018-07-01T19:46:04.966Z,1.60
2018-07-01T19:48:33.572Z,1.30
2018-07-01T19:51:02.092Z,1.30
2018-07-01T19:53:30.628Z,1.37
2018-07-01T19:55:59.809Z,1.22
2018-07-01T19:58:28.391Z,1.20
2018-07-01T20:00:56.911Z,1.52
2018-07-01T20:03:25.474Z,1.60
2018-07-01T20:05:54.753Z,1.52
2018-07-01T20:08:23.369Z,1.12
2018-07-01T20:10:55.917Z,1.52
2018-07-01T20:13:24.452Z,2.70
2018-07-01T20:15:53.133Z,1.22
2018-07-01T20:18:21.704Z,1.40
2018-07-01T20:20:52.194Z,1.10
2018-07-01T20:23:20.775Z,1.00
2018-07-01T20:25:49.295Z,1.07
2018-07-01T20:28:17.942Z,1.30
2018-07-01T20:30:46.476Z,0.88
2018-07-01T20:33:15.045Z,0.80
2018-07-01T20:35:43.751Z,1.00
2018-07-01T20:38:12.336Z,0.93
2018-07-01T20:40:40.870Z,0.90
2018-07-01T20:43:09.517Z,0.90
2018-07-01T20:45:38.059Z,0.90
2018-07-01T20:48:06.629Z,0.88
2018-07-01T20:50:35.688Z,0.70
2018-07-01T20:53:07.237Z,0.75
2018-07-01T20:55:35.786Z,0.90
2018-07-01T20:58:04.312Z,0.78
2018-07-01T21:00:32.889Z,1.00
2018-07-01T21:03:01.359Z,1.05
2018-07-01T21:05:29.967Z,1.10
2018-07-01T21:07:58.444Z,1.00
2018-07-01T21:10:26.951Z,0.80
2018-07-01T21:12:55.565Z,0.70
2018-07-01T21:15:24.051Z,0.90
2018-07-01T21:17:52.622Z,0.70
2018-07-01T21:20:21.135Z,0.80
2018-07-01T21:22:49.663Z,0.68
2018-07-01T21:25:18.199Z,0.80
2018-07-01T21:27:46.815Z,1.02
2018-07-01T21:30:15.305Z,0.80
2018-07-01T21:32:43.835Z,0.80
2018-07-01T21:35:12.359Z,0.68
2018-07-01T21:37:41.031Z,0.82
2018-07-01T21:40:09.569Z,0.68
2018-07-01T21:42:38.241Z,0.80
2018-07-01T21:45:07.514Z,0.60
2018-07-01T21:47:36.250Z,0.80
2018-07-01T21:50:05.370Z,0.70
2018-07-01T21:52:34.045Z,0.90
2018-07-01T21:55:02.720Z,0.90
2018-07-01T21:57:31.533Z,0.90
2018-07-01T22:00:00.231Z,0.70
2018-07-01T22:02:29.622Z,1.15
2018-07-01T22:04:59.228Z,0.70
2018-07-01T22:07:28.957Z,0.70
2018-07-01T22:09:57.619Z,0.70
2018-07-01T22:12:38.251Z,0.80
2018-07-01T22:15:22.475Z,0.70
2018-07-01T22:17:51.124Z,0.90
2018-07-01T22:20:21.693Z,1.22
2018-07-01T22:22:50.457Z,0.90
2018-07-01T22:25:19.044Z,1.20
2018-07-01T22:27:47.678Z,0.80
2018-07-01T22:30:16.288Z,0.70
2018-07-01T22:32:45.686Z,0.60
2018-07-01T22:35:14.220Z,0.62
2018-07-01T22:37:43.783Z,0.68
2018-07-01T22:40:12.421Z,0.80
2018-07-01T22:42:41.117Z,0.70
2018-07-01T22:45:10.324Z,0.78
2018-07-01T22:47:39.044Z,0.70
2018-07-01T22:50:07.958Z,0.65
2018-07-01T22:52:38.589Z,0.60
2018-07-01T22:55:07.187Z,0.60
2018-07-01T22:57:35.809Z,0.68
2018-07-01T23:00:05.143Z,0.40
2018-07-01T23:02:54.983Z,0.60
2018-07-01T23:05:24.019Z,0.68
2018-07-01T23:07:52.931Z,0.78
2018-07-01T23:10:23.406Z,0.85
2018-07-01T23:12:54.060Z,0.68
2018-07-01T23:15:23.289Z,0.60
2018-07-01T23:17:51.922Z,0.75
2018-07-01T23:20:21.506Z,0.50
2018-07-01T23:22:50.066Z,0.70
2018-07-01T23:25:19.966Z,0.60
2018-07-01T23:27:48.613Z,0.57
2018-07-01T23:30:18.098Z,0.62
2018-07-01T23:32:47.370Z,0.68
2018-07-01T23:35:17.381Z,0.80
2018-07-01T23:37:46.672Z,0.53
2018-07-01T23:40:15.296Z,0.65
2018-07-01T23:42:44.389Z,0.55
2018-07-01T23:45:15.382Z,0.47
